createdAt,value
2023-01-30T09:07:23.786Z,0.00
2023-01-30T09:08:27.057Z,0.00
2023-01-30T09:09:30.592Z,0.00
2023-01-30T09:10:38.554Z,0.00
2023-01-30T09:11:43.276Z,0.00
2023-01-30T09:12:47.496Z,0.00
2023-01-30T09:13:50.977Z,0.50
2023-01-30T09:14:54.568Z,1.00
2023-01-30T09:15:59.720Z,0.00
2023-01-30T09:17:07.113Z,0.00
2023-01-30T09:18:14.031Z,0.50
2023-01-30T09:19:22.078Z,0.25
2023-01-30T09:20:29.821Z,0.50
2023-01-30T09:21:34.020Z,0.00
2023-01-30T09:22:44.507Z,0.00
2023-01-30T09:23:51.299Z,0.50
2023-01-30T09:25:06.277Z,0.50
2023-01-30T09:26:15.686Z,0.00
2023-01-30T09:27:20.963Z,0.25
2023-01-30T09:28:34.243Z,0.00
2023-01-30T09:29:53.287Z,0.50
2023-01-30T09:31:00.143Z,1.00
2023-01-30T09:32:03.398Z,1.00
2023-01-30T09:33:10.643Z,0.00
2023-01-30T09:43:31.637Z,0.00
2023-01-30T09:44:39.630Z,1.00
2023-01-30T09:48:25.748Z,0.75
2023-01-30T10:00:17.354Z,1.50
2023-01-30T10:04:08.890Z,2.00
2023-01-30T10:07:39.219Z,1.50
2023-01-30T10:08:50.160Z,2.00
2023-01-30T11:40:07.979Z,1.75
2023-01-30T12:06:55.127Z,2.00
2023-01-30T12:08:09.228Z,2.25
2023-01-30T12:09:15.834Z,1.00
2023-01-30T12:10:23.321Z,1.50
2023-01-30T12:12:57.843Z,1.75
2023-01-30T12:16:43.342Z,1.25
2023-01-30T12:20:27.174Z,2.00
2023-01-30T12:21:34.708Z,1.50
2023-01-30T12:22:37.560Z,2.00
2023-01-30T12:23:41.015Z,1.50
2023-01-30T12:26:07.272Z,1.50
2023-01-30T12:28:34.955Z,2.25
2023-01-30T12:29:41.042Z,2.50
2023-01-30T12:30:57.356Z,2.00
2023-01-30T12:32:02.164Z,2.00
2023-01-30T12:33:07.215Z,2.00
2023-01-30T12:34:15.003Z,2.50
2023-01-30T12:35:18.240Z,1.50
2023-01-30T12:37:41.908Z,1.50
2023-01-30T12:38:55.568Z,2.00
2023-01-30T12:39:58.004Z,2.00
2023-01-30T12:41:12.625Z,2.50
2023-01-30T12:42:17.444Z,2.50
2023-01-30T12:43:20.153Z,3.00
2023-01-30T12:44:24.190Z,3.00
2023-01-30T12:45:35.986Z,2.25
2023-01-30T12:46:39.285Z,1.50
2023-01-30T12:47:42.453Z,2.50
2023-01-30T12:49:11.007Z,2.00
2023-01-30T12:50:14.825Z,2.00
2023-01-30T12:51:19.738Z,1.50
2023-01-30T12:52:22.633Z,1.25
2023-01-30T12:53:34.896Z,1.75
2023-01-30T12:54:37.678Z,2.50
2023-01-30T12:55:58.168Z,2.50
2023-01-30T12:57:02.275Z,2.00
2023-01-30T12:58:04.999Z,2.50
2023-01-30T12:59:08.299Z,2.50
2023-01-30T13:00:15.023Z,1.00
2023-01-30T13:01:20.265Z,1.50
2023-01-30T13:02:25.612Z,2.50
2023-01-30T13:03:30.620Z,2.50
2023-01-30T13:08:27.688Z,2.50
2023-01-30T13:09:30.768Z,1.50
2023-01-30T13:13:15.408Z,1.25
2023-01-30T13:14:18.886Z,1.25
2023-01-30T13:15:25.043Z,2.00
2023-01-30T13:16:27.998Z,2.25
2023-01-30T13:17:31.524Z,2.50
2023-01-30T13:18:34.439Z,1.50
2023-01-30T13:19:41.047Z,1.00
2023-01-30T13:20:45.963Z,0.75
2023-01-30T13:21:52.278Z,2.00
2023-01-30T13:23:00.092Z,2.50
2023-01-30T13:24:03.091Z,2.50
2023-01-30T13:25:07.537Z,2.00
2023-01-30T13:26:10.301Z,1.50
2023-01-30T13:27:14.469Z,2.50
2023-01-30T13:28:17.787Z,1.50
2023-01-30T13:29:20.611Z,2.50
2023-01-30T13:30:24.024Z,2.00
2023-01-30T13:31:27.366Z,1.50
2023-01-30T13:32:30.627Z,2.00
2023-01-30T13:33:33.746Z,2.00
2023-01-30T13:34:36.589Z,2.00
2023-01-30T13:35:39.423Z,1.50
2023-01-30T13:36:51.987Z,2.00
2023-01-30T13:37:54.784Z,2.00
2023-01-30T13:38:57.832Z,1.60
2023-01-30T13:40:00.767Z,2.00
2023-01-30T13:41:05.051Z,2.50
2023-01-30T13:42:15.366Z,3.00
2023-01-30T13:43:19.140Z,2.00
2023-01-30T13:44:22.043Z,2.50
2023-01-30T13:45:24.871Z,1.50
2023-01-30T13:46:27.899Z,2.00
2023-01-30T13:47:33.188Z,1.25
2023-01-30T13:48:36.150Z,1.75
2023-01-30T13:49:39.146Z,2.00
2023-01-30T13:50:42.339Z,2.00
2023-01-30T13:51:45.196Z,1.50
2023-01-30T13:52:48.646Z,2.50
2023-01-30T13:53:57.201Z,3.00
2023-01-30T13:55:00.312Z,2.00
2023-01-30T13:56:27.131Z,2.00
2023-01-30T13:58:35.714Z,2.00
2023-01-30T13:59:38.562Z,2.50
2023-01-30T14:00:41.634Z,2.50
2023-01-30T14:01:44.490Z,2.00
2023-01-30T14:02:48.609Z,2.50
2023-01-30T14:03:51.973Z,3.50
2023-01-30T14:04:55.098Z,3.00
2023-01-30T14:06:02.824Z,1.25
2023-01-30T14:07:05.112Z,2.50
2023-01-30T14:08:08.162Z,3.00
2023-01-30T14:09:10.972Z,3.00
2023-01-30T14:10:14.110Z,3.00
2023-01-30T14:11:17.068Z,2.00
2023-01-30T14:12:19.901Z,1.75
2023-01-30T14:13:23.008Z,2.50
2023-01-30T14:14:26.113Z,2.00
2023-01-30T14:15:32.763Z,2.50
2023-01-30T14:16:35.863Z,2.50
2023-01-30T14:17:38.737Z,2.25
2023-01-30T14:18:42.013Z,2.00
2023-01-30T14:19:44.949Z,2.00
2023-01-30T14:20:48.117Z,2.00
2023-01-30T14:21:51.224Z,2.00
2023-01-30T14:22:54.075Z,2.00
2023-01-30T14:23:57.097Z,1.50
2023-01-30T14:25:00.029Z,1.75
2023-01-30T14:26:03.083Z,2.50
2023-01-30T14:27:05.822Z,2.00
2023-01-30T14:28:08.867Z,1.75
2023-01-30T14:29:11.953Z,2.00
2023-01-30T14:30:14.932Z,2.25
2023-01-30T14:31:18.265Z,2.00
2023-01-30T14:32:21.267Z,3.00
2023-01-30T14:33:27.301Z,2.00
2023-01-30T14:34:30.032Z,2.50
2023-01-30T14:35:32.732Z,2.25
2023-01-30T14:36:35.803Z,1.20
2023-01-30T14:37:38.623Z,2.50
2023-01-30T14:38:41.792Z,1.50
2023-01-30T14:39:44.825Z,1.50
2023-01-30T14:40:47.702Z,2.50
2023-01-30T14:41:50.683Z,2.50
2023-01-30T14:42:53.643Z,2.00
2023-01-30T14:43:56.568Z,2.00
2023-01-30T14:44:59.405Z,2.00
2023-01-30T14:46:02.466Z,2.00
2023-01-30T14:47:33.508Z,2.00
2023-01-30T14:48:09.630Z,2.50
2023-01-30T14:49:12.916Z,2.75
2023-01-30T14:50:15.925Z,2.00
2023-01-30T14:51:19.131Z,2.00
2023-01-30T14:52:22.534Z,2.75
2023-01-30T14:53:28.711Z,2.50
2023-01-30T14:54:41.924Z,2.50
2023-01-30T14:55:40.213Z,2.00
2023-01-30T14:56:42.940Z,2.50
2023-01-30T14:57:45.795Z,2.50
2023-01-30T14:58:48.674Z,2.00
2023-01-30T15:00:15.052Z,2.00
2023-01-30T15:01:14.379Z,2.50
2023-01-30T15:02:17.637Z,3.25
2023-01-30T15:03:20.765Z,2.50
2023-01-30T15:04:23.928Z,1.75
2023-01-30T15:05:26.892Z,2.25
2023-01-30T15:06:29.669Z,2.50
2023-01-30T15:07:32.815Z,2.00
2023-01-30T15:08:35.821Z,2.00
2023-01-30T15:09:38.913Z,2.50
2023-01-30T15:10:42.023Z,2.00
2023-01-30T15:11:45.154Z,1.75
2023-01-30T15:12:48.341Z,3.25
2023-01-30T15:13:51.124Z,3.00
2023-01-30T15:16:14.910Z,2.00
2023-01-30T15:17:18.195Z,1.50
2023-01-30T15:18:21.043Z,3.00
2023-01-30T15:19:23.943Z,2.50
2023-01-30T15:20:29.150Z,1.00
2023-01-30T15:21:32.257Z,2.00
2023-01-30T15:22:35.350Z,1.50
2023-01-30T15:23:38.536Z,2.50
2023-01-30T15:24:41.555Z,2.25
2023-01-30T15:25:44.419Z,1.50
2023-01-30T15:26:47.509Z,1.25
2023-01-30T15:27:50.384Z,2.00
2023-01-30T15:28:53.418Z,2.75
2023-01-30T15:29:56.199Z,2.00
2023-01-30T15:30:59.597Z,2.00
2023-01-30T15:32:02.721Z,2.00
2023-01-30T15:33:05.761Z,2.50
2023-01-30T15:34:08.879Z,3.00
2023-01-30T15:35:11.670Z,2.00
2023-01-30T15:36:14.944Z,1.75
2023-01-30T15:37:18.237Z,2.00
2023-01-30T15:38:21.245Z,2.00
2023-01-30T15:39:24.360Z,2.00
2023-01-30T15:40:27.155Z,2.00
2023-01-30T15:41:31.638Z,1.25
2023-01-30T15:42:35.564Z,1.75
2023-01-30T15:43:38.594Z,2.50
2023-01-30T15:44:42.185Z,2.25
2023-01-30T15:45:51.263Z,1.50
2023-01-30T15:46:54.507Z,2.00
2023-01-30T15:48:02.700Z,1.50
2023-01-30T15:49:05.923Z,2.50
2023-01-30T15:50:08.799Z,2.00
2023-01-30T15:51:15.108Z,1.75
2023-01-30T15:52:18.194Z,1.25
2023-01-30T15:53:21.016Z,1.00
2023-01-30T15:54:24.277Z,1.50
2023-01-30T15:55:27.207Z,1.50
2023-01-30T15:56:32.024Z,1.40
2023-01-30T15:57:34.936Z,1.50
2023-01-30T15:58:39.663Z,1.50
2023-01-30T15:59:44.005Z,1.50
2023-01-30T16:00:46.926Z,1.50
2023-01-30T16:02:00.251Z,1.60
2023-01-30T16:03:03.034Z,2.00
2023-01-30T16:04:05.917Z,2.00
2023-01-30T16:05:09.229Z,2.00
2023-01-30T16:06:12.320Z,2.00
2023-01-30T16:07:16.146Z,1.50
2023-01-30T16:08:19.549Z,1.25
2023-01-30T16:09:22.610Z,1.75
2023-01-30T16:10:25.820Z,2.00
2023-01-30T16:11:30.616Z,2.60
2023-01-30T16:12:33.467Z,2.00
2023-01-30T16:13:36.189Z,2.00
2023-01-30T16:14:39.229Z,1.00
2023-01-30T16:15:43.556Z,1.50
2023-01-30T16:16:47.547Z,2.00
2023-01-30T16:17:50.577Z,2.00
2023-01-30T16:18:53.415Z,1.50
2023-01-30T16:19:59.495Z,2.00
2023-01-30T16:21:04.445Z,2.00
2023-01-30T16:22:11.318Z,2.50
2023-01-30T16:23:14.243Z,1.50
2023-01-30T16:24:17.062Z,1.25
2023-01-30T16:25:22.390Z,1.50
2023-01-30T16:26:25.816Z,1.75
2023-01-30T16:27:28.910Z,1.25
2023-01-30T16:28:31.770Z,1.75
2023-01-30T16:29:34.969Z,2.25
2023-01-30T16:30:38.299Z,1.80
2023-01-30T16:31:41.430Z,2.25
2023-01-30T16:32:49.159Z,2.00
2023-01-30T16:33:52.007Z,1.50
2023-01-30T16:34:54.961Z,1.50
2023-01-30T16:35:57.700Z,1.50
2023-01-30T16:37:00.832Z,1.50
2023-01-30T16:38:04.412Z,2.00
2023-01-30T16:39:07.169Z,1.25
2023-01-30T16:40:10.255Z,1.00
2023-01-30T16:41:13.379Z,2.00
2023-01-30T16:42:16.292Z,2.50
2023-01-30T16:43:19.448Z,2.00
2023-01-30T16:44:22.626Z,1.50
2023-01-30T16:45:25.745Z,1.50
2023-01-30T16:46:28.900Z,1.50
2023-01-30T16:47:31.853Z,1.50
2023-01-30T16:48:34.884Z,2.25
2023-01-30T16:49:38.074Z,2.00
2023-01-30T16:50:41.092Z,1.00
2023-01-30T16:51:44.913Z,2.00
2023-01-30T16:52:47.767Z,2.00
2023-01-30T16:53:50.777Z,1.75
2023-01-30T16:54:53.880Z,1.50
2023-01-30T16:55:56.832Z,1.25
2023-01-30T16:57:00.025Z,1.00
2023-01-30T16:58:02.862Z,0.00
2023-01-30T16:59:06.045Z,1.50
2023-01-30T17:00:09.207Z,0.50
2023-01-30T17:01:12.049Z,1.50
2023-01-30T17:02:15.468Z,2.00
2023-01-30T17:03:18.518Z,1.50
2023-01-30T17:04:21.609Z,1.50
2023-01-30T17:05:24.556Z,2.00
2023-01-30T17:06:27.927Z,2.00
2023-01-30T17:07:31.087Z,1.25
2023-01-30T17:08:34.154Z,1.00
2023-01-30T17:09:37.174Z,1.00
2023-01-30T17:10:39.945Z,1.50
2023-01-30T17:11:43.229Z,1.50
2023-01-30T17:12:47.055Z,1.25
2023-01-30T17:13:49.916Z,1.25
2023-01-30T17:14:52.634Z,2.00
2023-01-30T17:15:55.583Z,2.50
2023-01-30T17:17:01.999Z,1.50
2023-01-30T17:18:04.824Z,1.00
2023-01-30T17:19:07.873Z,1.50
2023-01-30T17:20:10.630Z,2.00
2023-01-30T17:21:13.556Z,1.25
2023-01-30T17:22:18.031Z,1.50
2023-01-30T17:23:22.144Z,1.75
2023-01-30T17:24:25.086Z,1.50
2023-01-30T17:25:28.127Z,2.00
2023-01-30T17:26:31.328Z,1.50
2023-01-30T17:27:34.164Z,1.50
2023-01-30T17:28:37.003Z,2.00
2023-01-30T17:29:42.809Z,2.00
2023-01-30T17:30:44.002Z,2.00
2023-01-30T17:31:46.788Z,2.00
2023-01-30T17:32:49.797Z,2.00
2023-01-30T17:33:52.642Z,1.50
2023-01-30T17:34:55.517Z,2.00
2023-01-30T17:35:58.219Z,2.50
2023-01-30T17:37:01.156Z,3.00
2023-01-30T17:38:05.882Z,2.25
2023-01-30T17:39:08.120Z,2.00
2023-01-30T17:40:20.224Z,2.25
2023-01-30T17:41:23.449Z,2.75
2023-01-30T17:42:26.123Z,2.00
2023-01-30T17:43:28.913Z,2.00
2023-01-30T17:44:31.698Z,2.50
2023-01-30T17:45:34.616Z,2.00
2023-01-30T17:46:37.660Z,2.00
2023-01-30T17:47:40.636Z,1.50
2023-01-30T17:48:45.519Z,2.00
2023-01-30T17:49:48.154Z,1.50
2023-01-30T17:50:51.077Z,2.00
2023-01-30T17:52:00.703Z,2.25
2023-01-30T17:53:03.744Z,3.00
2023-01-30T17:54:06.686Z,2.50
2023-01-30T17:55:09.875Z,2.00
2023-01-30T17:56:13.128Z,2.00
2023-01-30T17:57:16.071Z,1.50
2023-01-30T17:58:19.095Z,2.50
2023-01-30T17:59:22.160Z,2.00
2023-01-30T18:00:25.476Z,1.50
2023-01-30T18:01:30.115Z,1.50
2023-01-30T18:02:33.158Z,3.00
2023-01-30T18:03:36.593Z,2.25
2023-01-30T18:04:39.417Z,2.00
2023-01-30T18:05:42.471Z,1.50
2023-01-30T18:06:45.350Z,2.00
2023-01-30T18:07:48.388Z,2.50
2023-01-30T18:08:51.337Z,1.50
2023-01-30T18:09:54.263Z,2.00
2023-01-30T18:10:57.540Z,1.00
2023-01-30T18:12:00.467Z,1.50
2023-01-30T18:13:03.401Z,2.00
2023-01-30T18:14:11.337Z,1.50
2023-01-30T18:15:14.366Z,1.75
2023-01-30T18:16:17.474Z,2.50
2023-01-30T18:17:20.544Z,1.75
2023-01-30T18:18:28.594Z,2.50
2023-01-30T18:19:31.784Z,2.50
2023-01-30T18:20:34.621Z,2.00
2023-01-30T18:21:39.330Z,1.50
2023-01-30T18:22:42.165Z,2.00
2023-01-30T18:23:45.212Z,1.00
2023-01-30T18:24:48.069Z,2.00
2023-01-30T18:25:50.999Z,1.50
2023-01-30T18:26:54.077Z,2.00
2023-01-30T18:27:56.905Z,1.50
2023-01-30T18:28:59.987Z,1.25
2023-01-30T18:30:04.382Z,2.00
2023-01-30T18:31:07.411Z,1.50
2023-01-30T18:32:10.551Z,1.00
2023-01-30T18:33:13.599Z,2.50
2023-01-30T18:34:16.794Z,1.50
2023-01-30T18:35:22.195Z,1.00
2023-01-30T18:36:25.425Z,2.00
2023-01-30T18:37:28.597Z,2.50
2023-01-30T18:38:31.754Z,2.00
2023-01-30T18:39:34.885Z,2.00
2023-01-30T18:40:38.072Z,2.50
2023-01-30T18:41:41.387Z,2.50
2023-01-30T18:42:45.036Z,1.50
2023-01-30T18:43:48.256Z,2.00
2023-01-30T18:44:51.393Z,2.00
2023-01-30T18:45:54.476Z,2.00
2023-01-30T18:46:57.849Z,2.00
2023-01-30T18:48:05.373Z,2.50
2023-01-30T18:49:08.092Z,2.00
2023-01-30T18:50:11.230Z,1.25
2023-01-30T18:51:14.212Z,1.50
2023-01-30T18:52:17.372Z,1.50
2023-01-30T18:53:20.445Z,2.00
2023-01-30T18:54:25.105Z,2.50
2023-01-30T18:55:28.122Z,2.00
2023-01-30T18:56:31.007Z,1.50
2023-01-30T18:57:34.174Z,1.00
2023-01-30T18:58:37.059Z,2.25
2023-01-30T18:59:40.166Z,2.50
2023-01-30T19:00:43.486Z,2.50
2023-01-30T19:01:46.472Z,3.00
2023-01-30T19:02:50.990Z,2.50
2023-01-30T19:03:54.153Z,0.75
2023-01-30T19:04:58.558Z,1.50
2023-01-30T19:06:01.647Z,2.00
2023-01-30T19:07:04.506Z,2.50
2023-01-30T19:08:07.731Z,2.50
2023-01-30T19:09:10.705Z,1.50
2023-01-30T19:10:15.096Z,2.00
2023-01-30T19:11:18.247Z,2.00
2023-01-30T19:12:22.847Z,2.00
2023-01-30T19:13:25.852Z,2.00
2023-01-30T19:14:28.585Z,2.50
2023-01-30T19:15:31.847Z,3.00
2023-01-30T19:16:40.647Z,1.50
2023-01-30T19:17:43.726Z,2.00
2023-01-30T19:18:46.935Z,2.50
2023-01-30T19:20:00.548Z,2.00
2023-01-30T19:21:03.505Z,1.00
2023-01-30T19:22:06.513Z,1.50
2023-01-30T19:23:09.698Z,2.50
2023-01-30T19:24:23.609Z,2.25
2023-01-30T19:25:28.193Z,3.00
2023-01-30T19:26:31.422Z,2.50
2023-01-30T19:27:34.538Z,2.00
2023-01-30T19:29:57.759Z,1.00
2023-01-30T19:31:04.049Z,1.75
2023-01-30T19:32:06.993Z,2.00
2023-01-30T19:33:14.416Z,2.00
2023-01-30T19:34:22.016Z,1.75
2023-01-30T19:35:25.198Z,3.00
2023-01-30T19:37:48.725Z,3.00
2023-01-30T19:38:51.606Z,3.00
2023-01-30T19:39:55.120Z,3.00
2023-01-30T19:41:03.067Z,2.25
2023-01-30T19:42:06.164Z,2.25
2023-01-30T19:43:11.186Z,2.67
2023-01-30T19:44:14.457Z,2.50
2023-01-30T19:45:24.322Z,2.75
2023-01-30T19:46:27.589Z,3.50
2023-01-30T19:47:37.085Z,3.00
2023-01-30T19:48:40.086Z,3.50
2023-01-30T19:49:43.070Z,3.00
2023-01-30T19:50:46.406Z,2.50
2023-01-30T19:51:49.125Z,3.50
2023-01-30T19:52:53.151Z,3.50
2023-01-30T19:53:56.042Z,3.00
2023-01-30T19:54:59.091Z,3.00
2023-01-30T19:56:04.043Z,2.50
2023-01-30T19:57:06.402Z,2.50
2023-01-30T19:58:09.436Z,2.50
2023-01-30T19:59:17.783Z,2.00
2023-01-30T20:00:24.327Z,3.50
2023-01-30T20:01:27.782Z,3.50
2023-01-30T20:03:40.830Z,2.00
2023-01-30T20:04:53.243Z,2.50
2023-01-30T20:05:56.675Z,2.50
2023-01-30T20:07:03.568Z,3.00
2023-01-30T20:08:06.290Z,3.00
2023-01-30T20:09:09.490Z,2.50
2023-01-30T20:10:12.643Z,2.75
2023-01-30T20:11:20.996Z,3.00
2023-01-30T20:12:27.735Z,2.50
2023-01-30T20:13:30.756Z,2.25
2023-01-30T20:14:33.652Z,3.00
2023-01-30T20:16:57.546Z,1.75
2023-01-30T20:18:00.658Z,3.50
2023-01-30T20:19:04.197Z,2.75
2023-01-30T20:20:07.372Z,2.00
2023-01-30T20:21:10.351Z,2.50
2023-01-30T20:22:14.045Z,2.50
2023-01-30T20:23:17.183Z,2.50
2023-01-30T20:24:22.446Z,2.00
2023-01-30T20:25:26.264Z,2.00
2023-01-30T20:26:30.986Z,3.00
2023-01-30T20:27:38.637Z,3.50
2023-01-30T20:28:43.385Z,2.00
2023-01-30T20:31:10.566Z,2.50
2023-01-30T20:32:13.829Z,2.00
2023-01-30T20:33:16.712Z,3.00
2023-01-30T20:34:20.274Z,2.40
2023-01-30T20:35:32.912Z,2.50
2023-01-30T20:36:53.913Z,2.25
2023-01-30T20:39:26.510Z,2.25
2023-01-30T20:40:29.500Z,2.50
2023-01-30T20:41:32.387Z,1.75
2023-01-30T20:42:35.453Z,2.75
2023-01-30T20:43:38.784Z,3.75
2023-01-30T20:44:41.981Z,3.50
2023-01-30T20:45:45.049Z,3.50
2023-01-30T20:46:48.442Z,2.50
2023-01-30T20:47:51.281Z,1.00
2023-01-30T20:48:54.871Z,2.00
2023-01-30T20:50:10.517Z,2.00
2023-01-30T20:51:15.134Z,2.50
2023-01-30T20:52:19.389Z,3.00
2023-01-30T20:53:23.629Z,2.00
2023-01-30T20:54:29.600Z,2.50
2023-01-30T20:55:33.301Z,1.75
2023-01-30T20:56:37.249Z,4.00
2023-01-30T20:57:40.713Z,3.25
2023-01-30T20:58:44.309Z,1.00
2023-01-30T20:59:47.691Z,2.00
2023-01-30T21:00:52.815Z,2.00
2023-01-30T21:02:00.527Z,1.75
2023-01-30T21:03:05.265Z,2.00
2023-01-30T21:04:08.149Z,1.25
2023-01-30T21:05:21.162Z,1.50
2023-01-30T21:07:44.436Z,1.50
2023-01-30T21:08:52.916Z,2.50
2023-01-30T21:10:02.850Z,2.75
2023-01-30T21:11:05.847Z,2.00
2023-01-30T21:12:18.426Z,1.50
2023-01-30T21:14:47.339Z,1.50
2023-01-30T21:15:56.590Z,2.00
2023-01-30T21:17:07.568Z,2.00
2023-01-30T21:18:12.822Z,1.75
2023-01-30T21:20:41.327Z,1.50
2023-01-30T21:21:55.212Z,2.00
2023-01-30T21:50:01.399Z,1.50
2023-01-30T21:53:47.599Z,1.25
2023-01-30T22:00:20.802Z,5.50
2023-01-30T22:02:53.978Z,3.00
2023-01-30T22:05:30.662Z,2.50
2023-01-30T22:06:43.634Z,3.50
2023-01-30T22:07:46.945Z,2.50
2023-01-30T22:08:54.456Z,3.00
2023-01-30T22:09:58.663Z,2.00
2023-01-30T22:11:07.470Z,2.50
2023-01-30T22:12:13.674Z,2.25
2023-01-30T22:14:35.543Z,2.50
2023-01-30T22:15:39.907Z,2.50
2023-01-30T22:22:08.031Z,2.00
2023-01-30T22:23:12.759Z,2.50
2023-01-30T22:24:21.680Z,1.50
2023-01-30T22:25:25.969Z,2.00
2023-01-30T22:26:38.781Z,1.75
2023-01-30T22:27:42.697Z,2.00
2023-01-30T22:28:51.757Z,2.00
2023-01-30T22:29:55.310Z,1.50
2023-01-30T22:31:11.991Z,1.25
2023-01-30T22:32:27.386Z,1.50
2023-01-30T22:33:34.963Z,1.25
2023-01-30T22:34:40.582Z,1.25
2023-01-30T22:35:45.546Z,1.50
2023-01-30T22:36:51.793Z,1.25
2023-01-30T22:38:02.736Z,1.00
2023-01-30T22:39:11.328Z,1.75
2023-01-30T22:43:05.380Z,1.00
2023-01-30T22:44:08.830Z,0.50
2023-01-30T22:45:21.594Z,1.00
2023-01-30T22:46:28.607Z,1.00
2023-01-30T22:47:32.071Z,1.50
2023-01-30T22:48:41.516Z,2.00
2023-01-30T22:49:52.884Z,1.50
2023-01-30T22:50:56.911Z,0.00
2023-01-30T22:52:00.164Z,1.00
2023-01-30T22:53:03.665Z,1.75
2023-01-30T22:54:09.109Z,1.50
2023-01-30T22:56:45.559Z,1.00
2023-01-30T22:57:49.067Z,1.00
2023-01-30T22:59:02.492Z,1.00
2023-01-30T23:00:09.565Z,1.00
2023-01-30T23:01:16.011Z,0.00
2023-01-30T23:02:20.644Z,0.00
2023-01-30T23:03:24.133Z,0.50
2023-01-30T23:04:28.007Z,0.75
2023-01-30T23:05:31.438Z,0.50
2023-01-30T23:06:34.993Z,0.75
2023-01-30T23:07:39.139Z,1.25
2023-01-30T23:08:42.926Z,1.00
2023-01-30T23:09:50.585Z,0.50
2023-01-30T23:10:54.181Z,1.00
2023-01-30T23:11:59.538Z,1.00
2023-01-30T23:13:03.420Z,1.00
2023-01-30T23:14:08.013Z,1.00
2023-01-30T23:15:12.679Z,0.50
2023-01-30T23:17:43.052Z,1.00
2023-01-30T23:21:17.897Z,0.50
2023-01-30T23:22:21.987Z,0.75
2023-01-30T23:23:28.612Z,1.25
2023-01-30T23:24:34.118Z,1.50
2023-01-30T23:25:37.990Z,1.50
2023-01-30T23:26:41.833Z,1.00
2023-01-30T23:34:19.054Z,1.50
2023-01-30T23:35:24.370Z,1.50
2023-01-30T23:36:35.418Z,0.75
2023-01-30T23:37:40.121Z,0.50
2023-01-30T23:38:45.242Z,1.00
2023-01-30T23:39:56.540Z,1.50
2023-01-30T23:41:00.731Z,1.00
2023-01-30T23:42:04.641Z,1.00
2023-01-30T23:43:08.630Z,0.75
2023-01-30T23:44:12.243Z,1.00
2023-01-30T23:45:16.121Z,1.00
2023-01-30T23:46:19.984Z,1.00
2023-01-30T23:47:25.149Z,1.00
2023-01-30T23:48:28.582Z,1.50
2023-01-30T23:49:33.451Z,0.50
2023-01-30T23:50:45.887Z,1.50
2023-01-30T23:51:49.970Z,0.50
2023-01-30T23:53:01.447Z,1.00
2023-01-30T23:54:06.193Z,1.00
2023-01-30T23:55:13.433Z,0.50
2023-01-30T23:56:17.445Z,1.00
2023-01-30T23:57:21.327Z,1.00
2023-01-30T23:58:26.108Z,1.00
2023-01-30T23:59:29.880Z,1.00
